Time;durP1;ratioP1;P1;durP2;ratioP2;P2;SDS_P1;SDS_P2;PMS_P1;PMS_P2;Temp;Humidity;BMP_temperature;BMP_pressure;BME280_temperature;BME280_humidity;BME280_pressure;Samples;Min_cycle;Max_cycle;Signal;HPM_P1;HPM_P2
2022/04/19 00:01:43;;;;;;;;;;;;;;;17.24;47.04;100450.59;5070666;28;983;-61
2022/04/19 00:04:09;;;;;;;;;;;;;;;17.22;46.73;100447.31;5054372;28;1906;-61
2022/04/19 00:06:35;;;;;;;;;;;;;;;17.25;46.69;100445.91;5075881;28;1401;-61
2022/04/19 00:09:01;;;;;;;;;;;;;;;17.25;46.65;100440.41;5075818;28;830;-61
2022/04/19 00:11:27;;;;;;;;;;;;;;;17.27;46.54;100449.22;5076108;28;798;-61
2022/04/19 00:13:52;;;;;;;;;;;;;;;17.27;46.62;100438.22;5076356;28;742;-61
2022/04/19 00:16:18;;;;;;;;;;;;;;;17.21;46.93;100436.63;5066307;28;1124;-61
2022/04/19 00:18:43;;;;;;;;;;;;;;;17.26;46.70;100431.06;5075913;28;862;-61
2022/04/19 00:21:09;;;;;;;;;;;;;;;17.25;46.64;100434.91;5076050;28;865;-61
2022/04/19 00:23:34;;;;;;;;;;;;;;;17.22;46.77;100435.50;5075689;28;1901;-61
2022/04/19 00:26:00;;;;;;;;;;;;;;;17.21;46.94;100440.19;5073194;28;1017;-62
2022/04/19 00:28:26;;;;;;;;;;;;;;;17.28;46.38;100434.38;5073307;28;860;-61
2022/04/19 00:30:52;;;;;;;;;;;;;;;17.16;46.60;100436.66;5074743;28;857;-61
2022/04/19 00:33:17;;;;;;;;;;;;;;;17.19;46.41;100433.31;5057797;28;1600;-62
2022/04/19 00:35:42;;;;;;;;;;;;;;;17.19;46.52;100430.59;5076049;28;817;-62
2022/04/19 00:38:09;;;;;;;;;;;;;;;17.20;46.57;100430.28;5076297;28;948;-62
2022/04/19 00:40:35;;;;;;;;;;;;;;;17.20;46.56;100426.72;5057739;28;1202;-62
2022/04/19 00:43:00;;;;;;;;;;;;;;;17.20;46.42;100410.25;5070096;28;1905;-62
2022/04/19 00:45:26;;;;;;;;;;;;;;;17.22;46.41;100424.50;5071078;28;895;-62
2022/04/19 00:47:52;;;;;;;;;;;;;;;17.18;46.64;100417.94;5056346;28;1252;-62
2022/04/19 00:50:17;;;;;;;;;;;;;;;17.19;46.66;100414.09;5057036;28;1542;-62
2022/04/19 00:52:43;;;;;;;;;;;;;;;17.18;46.68;100412.44;5057714;28;1394;-62
2022/04/19 00:55:09;;;;;;;;;;;;;;;17.19;46.60;100411.34;5055924;28;1141;-62
2022/04/19 00:57:38;;;;;;;;;;;;;;;17.20;46.68;100410.25;5057894;28;1361;-62
2022/04/19 01:00:05;;;;;;;;;;;;;;;17.21;46.70;100406.41;5039245;28;1048;-62
2022/04/19 01:02:32;;;;;;;;;;;;;;;17.20;46.42;100402.81;5057902;28;1981;-62
2022/04/19 01:05:00;;;;;;;;;;;;;;;17.27;46.25;100405.25;5061791;28;1155;-62
2022/04/19 01:07:25;;;;;;;;;;;;;;;17.27;46.39;100395.06;5057028;28;1363;-62
2022/04/19 01:09:55;;;;;;;;;;;;;;;17.29;46.47;100397.50;5061747;28;1355;-62
2022/04/19 01:15:05;;;;;;;;;;;;;;;17.24;46.31;100392.88;5044181;28;1076;-62
2022/04/19 01:17:43;;;;;;;;;;;;;;;17.29;46.31;100394.75;5056130;28;1409;-62
2022/04/19 01:20:10;;;;;;;;;;;;;;;17.23;46.51;100387.69;5044352;28;1526;-61
2022/04/19 01:22:38;;;;;;;;;;;;;;;17.23;46.37;100388.50;5060890;28;1965;-61
2022/04/19 01:25:04;;;;;;;;;;;;;;;17.24;46.46;100389.34;5061198;28;806;-61
2022/04/19 01:27:31;;;;;;;;;;;;;;;17.23;46.33;100387.69;5060762;28;1264;-62
2022/04/19 01:30:00;;;;;;;;;;;;;;;17.25;46.41;100390.94;5060843;28;825;-62
2022/04/19 01:32:27;;;;;;;;;;;;;;;17.23;46.51;100382.19;5057238;28;1250;-62
2022/04/19 01:35:05;;;;;;;;;;;;;;;17.23;46.22;100379.44;5060831;28;1544;-62
2022/04/19 01:37:37;;;;;;;;;;;;;;;17.20;46.23;100378.09;5078903;28;826;-61
2022/04/19 01:40:18;;;;;;;;;;;;;;;17.20;46.28;100388.25;5060995;28;1108;-62
2022/04/19 01:42:46;;;;;;;;;;;;;;;17.18;46.55;100382.22;5060507;28;1883;-62
2022/04/19 01:45:25;;;;;;;;;;;;;;;17.16;46.28;100387.19;5056771;28;882;-62
2022/04/19 01:47:55;;;;;;;;;;;;;;;17.18;46.38;100390.47;5051178;28;1225;-62
2022/04/19 01:50:21;;;;;;;;;;;;;;;17.22;46.15;100395.13;5054771;28;904;-62
2022/04/19 01:52:47;;;;;;;;;;;;;;;17.28;46.37;100395.91;5078734;28;741;-62
2022/04/19 01:55:20;;;;;;;;;;;;;;;17.27;45.98;100394.25;5054706;28;1234;-62
2022/04/19 01:57:47;;;;;;;;;;;;;;;17.24;46.41;100383.84;5060212;28;1347;-62
2022/04/19 02:00:13;;;;;;;;;;;;;;;17.24;46.01;100392.09;5057880;28;1213;-62
2022/04/19 02:02:45;;;;;;;;;;;;;;;17.21;46.14;100390.72;5078061;28;1906;-62
2022/04/19 02:05:14;;;;;;;;;;;;;;;17.20;46.38;100394.56;5060668;28;1174;-62
2022/04/19 02:07:42;;;;;;;;;;;;;;;17.23;46.30;100401.44;5060664;28;1118;-62
2022/04/19 02:10:09;;;;;;;;;;;;;;;17.23;46.23;100398.69;5043534;28;1272;-62
2022/04/19 02:12:35;;;;;;;;;;;;;;;17.19;46.08;100400.34;5054747;28;1386;-62
2022/04/19 02:15:32;;;;;;;;;;;;;;;17.14;46.26;100406.72;5048907;28;1550;-62
2022/04/19 02:18:18;;;;;;;;;;;;;;;17.17;46.11;100405.34;5077602;28;1073;-62
2022/04/19 02:20:45;;;;;;;;;;;;;;;17.19;46.17;100405.84;5077995;28;1020;-62
2022/04/19 02:23:10;;;;;;;;;;;;;;;17.24;45.95;100411.31;5077316;28;1913;-62
2022/04/19 02:25:37;;;;;;;;;;;;;;;17.21;45.93;100409.16;5071813;28;1064;-61
2022/04/19 02:28:07;;;;;;;;;;;;;;;17.14;46.04;100416.88;5060665;28;1352;-61
2022/04/19 02:30:35;;;;;;;;;;;;;;;17.21;45.86;100420.94;5054473;28;1198;-61
2022/04/19 02:33:07;;;;;;;;;;;;;;;17.21;46.17;100422.88;5060014;28;1237;-61
2022/04/19 02:35:37;;;;;;;;;;;;;;;17.15;46.23;100421.25;5060220;28;1154;-61
2022/04/19 02:38:03;;;;;;;;;;;;;;;17.21;45.89;100436.63;5055541;28;1115;-61
2022/04/19 02:40:36;;;;;;;;;;;;;;;17.19;46.06;100433.31;5059910;28;1265;-62
2022/04/19 02:43:02;;;;;;;;;;;;;;;17.15;46.05;100438.56;5059819;28;1983;-62
2022/04/19 02:45:29;;;;;;;;;;;;;;;17.12;46.19;100441.88;5055785;28;1223;-61
2022/04/19 02:48:07;;;;;;;;;;;;;;;17.17;46.06;100454.78;5059808;28;1355;-61
2022/04/19 02:50:43;;;;;;;;;;;;;;;17.15;45.94;100451.50;5052356;28;1122;-62
2022/04/19 02:53:09;;;;;;;;;;;;;;;17.19;45.94;100447.06;5077520;28;802;-61
2022/04/19 02:55:37;;;;;;;;;;;;;;;17.14;45.98;100450.69;5059950;28;1237;-61
2022/04/19 02:58:02;;;;;;;;;;;;;;;17.19;45.83;100447.88;5059499;28;1126;-62
2022/04/19 03:00:28;;;;;;;;;;;;;;;17.23;45.69;100456.38;5057474;28;1096;-62
2022/04/19 03:02:54;;;;;;;;;;;;;;;17.23;45.67;100453.63;5056367;28;1972;-62
2022/04/19 03:05:19;;;;;;;;;;;;;;;17.26;45.51;100453.91;5058936;28;1378;-62
2022/04/19 03:07:45;;;;;;;;;;;;;;;17.27;45.62;100460.19;5077277;28;793;-62
2022/04/19 03:10:10;;;;;;;;;;;;;;;17.23;45.57;100459.13;5059375;28;1248;-62
2022/04/19 03:12:36;;;;;;;;;;;;;;;17.26;45.57;100464.88;5058808;28;742;-61
2022/04/19 03:15:11;;;;;;;;;;;;;;;17.24;45.91;100460.78;5068445;28;805;-61
2022/04/19 03:17:41;;;;;;;;;;;;;;;17.24;45.87;100455.28;5038924;28;1225;-62
2022/04/19 03:20:08;;;;;;;;;;;;;;;17.38;45.49;100464.50;5039067;28;1321;-62
2022/04/19 03:28:05;;;;;;;;;;;;;;;17.45;45.27;100472.44;5049818;28;762;-64
2022/04/19 03:30:31;;;;;;;;;;;;;;;17.41;45.58;100466.69;5035923;28;1220;-64
2022/04/19 03:32:56;;;;;;;;;;;;;;;17.43;45.29;100463.63;5038881;28;1123;-64
2022/04/19 03:35:22;;;;;;;;;;;;;;;17.53;45.23;100452.59;5056734;28;844;-63
2022/04/19 03:37:47;;;;;;;;;;;;;;;17.52;45.35;100461.13;5038330;28;1098;-58
2022/04/19 03:40:14;;;;;;;;;;;;;;;17.55;45.13;100455.84;5033656;28;1612;-55
2022/04/19 03:42:42;;;;;;;;;;;;;;;17.54;44.92;100465.19;5033633;28;1985;-56
2022/04/19 03:45:08;;;;;;;;;;;;;;;17.52;44.99;100464.69;5036116;28;2082;-51
2022/04/19 03:47:35;;;;;;;;;;;;;;;17.56;45.02;100467.69;5037454;28;1486;-51
2022/04/19 03:50:00;;;;;;;;;;;;;;;17.51;45.23;100464.97;5056484;28;809;-56
2022/04/19 03:52:26;;;;;;;;;;;;;;;17.55;45.01;100468.78;5038946;28;1166;-53
2022/04/19 03:54:52;;;;;;;;;;;;;;;17.53;45.08;100457.25;5037607;28;1111;-54
2022/04/19 03:57:18;;;;;;;;;;;;;;;17.61;44.87;100471.22;5037704;28;1207;-58
2022/04/19 03:59:44;;;;;;;;;;;;;;;17.58;44.72;100459.94;5038771;28;1354;-57
2022/04/19 04:02:11;;;;;;;;;;;;;;;17.59;44.74;100459.66;5037618;28;1942;-56
2022/04/19 04:04:36;;;;;;;;;;;;;;;17.67;44.84;100455.50;5038175;28;1292;-56
2022/04/19 04:07:04;;;;;;;;;;;;;;;17.69;44.72;100469.75;5034801;28;1205;-55
2022/04/19 04:09:32;;;;;;;;;;;;;;;17.71;44.59;100467.56;5037951;28;1290;-53
2022/04/19 04:12:00;;;;;;;;;;;;;;;17.71;44.39;100467.56;5038503;28;1115;-53
2022/04/19 04:14:26;;;;;;;;;;;;;;;17.71;44.67;100484.06;5037892;28;1206;-57
2022/04/19 04:16:51;;;;;;;;;;;;;;;17.70;44.66;100478.84;5060298;28;1199;-54
2022/04/19 04:19:18;;;;;;;;;;;;;;;17.65;44.75;100479.69;5051670;28;1134;-52
2022/04/19 04:21:44;;;;;;;;;;;;;;;17.65;44.45;100471.44;5058241;28;1355;-54
2022/04/19 04:24:09;;;;;;;;;;;;;;;17.65;44.57;100473.38;5057610;28;1909;-53
2022/04/19 04:26:40;;;;;;;;;;;;;;;17.68;44.41;100473.59;5057892;28;1257;-56
2022/04/19 04:29:06;;;;;;;;;;;;;;;17.65;44.63;100468.69;5058152;28;1411;-53
2022/04/19 04:31:32;;;;;;;;;;;;;;;17.71;44.18;100470.31;5054200;28;1227;-55
2022/04/19 04:33:58;;;;;;;;;;;;;;;17.67;44.40;100477.47;5057802;28;1470;-56
2022/04/19 04:36:23;;;;;;;;;;;;;;;17.74;44.51;100471.63;5057422;28;1181;-55
2022/04/19 04:38:49;;;;;;;;;;;;;;;17.73;44.33;100464.50;5075961;28;833;-55
2022/04/19 04:41:24;;;;;;;;;;;;;;;17.61;44.67;100464.88;5058032;28;1330;-55
2022/04/19 04:43:50;;;;;;;;;;;;;;;17.61;44.67;100473.13;5075410;28;1902;-55
2022/04/19 04:51:43;;;;;;;;;;;;;;;17.55;44.71;100474.28;5057211;28;1118;-53
2022/04/19 04:54:09;;;;;;;;;;;;;;;17.50;44.86;100475.16;5057139;28;1199;-55
2022/04/19 04:56:35;;;;;;;;;;;;;;;17.54;44.53;100480.88;5056082;28;1142;-56
2022/04/19 04:59:00;;;;;;;;;;;;;;;17.48;44.57;100465.56;5057128;28;1284;-57
2022/04/19 05:01:29;;;;;;;;;;;;;;;17.60;44.31;100474.25;5051170;28;1228;-58
2022/04/19 05:03:55;;;;;;;;;;;;;;;17.59;44.34;100484.41;5057786;28;1974;-56
2022/04/19 05:06:21;;;;;;;;;;;;;;;17.51;44.74;100486.97;5056732;28;1291;-55
2022/04/19 05:08:46;;;;;;;;;;;;;;;17.48;44.77;100488.34;5057533;28;1324;-56
2022/04/19 05:11:12;;;;;;;;;;;;;;;17.45;44.53;100483.44;5068593;28;873;-55
2022/04/19 05:13:38;;;;;;;;;;;;;;;17.44;44.65;100482.59;5057534;28;1125;-55
2022/04/19 05:16:04;;;;;;;;;;;;;;;17.48;44.56;100493.03;5053396;28;1355;-55
2022/04/19 05:18:30;;;;;;;;;;;;;;;17.41;44.76;100488.66;5057172;28;1209;-56
2022/04/19 05:20:56;;;;;;;;;;;;;;;17.38;45.04;100486.50;5075016;28;928;-54
2022/04/19 05:23:22;;;;;;;;;;;;;;;17.35;45.12;100488.97;5045126;28;1975;-53
2022/04/19 05:25:48;;;;;;;;;;;;;;;17.31;44.72;100488.75;5053731;28;1075;-56
2022/04/19 05:28:14;;;;;;;;;;;;;;;17.32;44.76;100487.66;5055749;28;1231;-56
2022/04/19 05:30:40;;;;;;;;;;;;;;;17.37;44.98;100495.84;5055608;28;1217;-55
2022/04/19 05:33:05;;;;;;;;;;;;;;;17.39;44.83;100490.91;5057598;28;1170;-55
2022/04/19 05:35:31;;;;;;;;;;;;;;;17.48;44.49;100495.78;5056520;28;1159;-56
2022/04/19 05:37:58;;;;;;;;;;;;;;;17.46;44.50;100490.56;5057366;28;1107;-57
2022/04/19 05:40:26;;;;;;;;;;;;;;;17.48;44.40;100498.53;5057131;28;1231;-57
2022/04/19 05:42:51;;;;;;;;;;;;;;;17.43;44.56;100502.97;5056811;28;1967;-56
2022/04/19 05:45:17;;;;;;;;;;;;;;;17.48;44.71;100504.03;5075071;28;930;-55
2022/04/19 05:47:43;;;;;;;;;;;;;;;17.43;44.78;100508.47;5052907;28;881;-53
2022/04/19 05:50:10;;;;;;;;;;;;;;;17.41;44.53;100507.91;5056712;28;1119;-54
2022/04/19 05:52:36;;;;;;;;;;;;;;;17.45;44.48;100508.97;5060357;28;949;-56
2022/04/19 05:55:04;;;;;;;;;;;;;;;17.41;44.44;100515.34;5060747;28;1157;-55
2022/04/19 05:57:30;;;;;;;;;;;;;;;17.40;44.39;100510.94;5060031;28;1095;-55
2022/04/19 05:59:55;;;;;;;;;;;;;;;17.37;44.59;100515.09;5060335;28;1074;-51
2022/04/19 06:05:06;;;;;;;;;;;;;;;17.35;44.62;100511.81;5060454;28;1127;-55
2022/04/19 06:07:31;;;;;;;;;;;;;;;17.34;44.58;100515.66;5078080;28;802;-56
2022/04/19 06:10:05;;;;;;;;;;;;;;;17.35;44.63;100514.56;5060450;28;1146;-56
2022/04/19 06:12:31;;;;;;;;;;;;;;;17.38;44.58;100516.72;5060575;28;1288;-56
2022/04/19 06:15:01;;;;;;;;;;;;;;;17.31;44.76;100515.44;5058800;28;1229;-55
2022/04/19 06:17:30;;;;;;;;;;;;;;;17.37;44.80;100520.56;5076443;28;1160;-55
2022/04/19 06:19:56;;;;;;;;;;;;;;;17.33;44.70;100519.50;5039492;28;1384;-56
2022/04/19 06:22:22;;;;;;;;;;;;;;;17.36;44.53;100521.72;5059241;28;1905;-53
2022/04/19 06:24:57;;;;;;;;;;;;;;;17.37;44.54;100520.56;5060172;28;1165;-53
2022/04/19 06:27:24;;;;;;;;;;;;;;;17.38;44.62;100516.72;5077272;28;1060;-55
2022/04/19 06:29:53;;;;;;;;;;;;;;;17.32;44.66;100523.38;5059717;28;1620;-53
2022/04/19 06:32:19;;;;;;;;;;;;;;;17.36;44.45;100513.47;5059664;28;1254;-55
2022/04/19 06:34:48;;;;;;;;;;;;;;;17.37;44.70;100517.81;5060113;28;1147;-56
2022/04/19 06:37:16;;;;;;;;;;;;;;;17.38;44.39;100522.22;5059586;28;1872;-55
2022/04/19 06:39:45;;;;;;;;;;;;;;;17.34;44.47;100521.16;5049236;28;1111;-55
2022/04/19 06:42:12;;;;;;;;;;;;;;;17.36;44.57;100521.72;5059723;28;2176;-57
2022/04/19 06:45:04;;;;;;;;;;;;;;;17.38;44.61;100522.22;5038116;28;1268;-56
2022/04/19 06:47:34;;;;;;;;;;;;;;;17.43;44.44;100519.44;5056455;28;1127;-55
2022/04/19 06:50:01;;;;;;;;;;;;;;;17.47;44.19;100524.38;5059547;28;1573;-55
2022/04/19 06:52:28;;;;;;;;;;;;;;;17.45;44.20;100527.41;5058811;28;1244;-55
2022/04/19 06:54:56;;;;;;;;;;;;;;;17.54;43.96;100525.69;5059507;28;1237;-55
2022/04/19 06:57:22;;;;;;;;;;;;;;;17.50;44.27;100519.13;5059309;28;1118;-55
2022/04/19 06:59:48;;;;;;;;;;;;;;;17.61;43.91;100533.59;5059240;28;1118;-55
2022/04/19 07:02:14;;;;;;;;;;;;;;;17.50;44.01;100523.78;5055217;28;1374;-55
2022/04/19 07:04:57;;;;;;;;;;;;;;;17.61;44.07;100531.69;5076693;28;785;-54
2022/04/19 07:07:23;;;;;;;;;;;;;;;17.61;43.86;100533.59;5059353;28;1275;-53
2022/04/19 07:09:50;;;;;;;;;;;;;;;17.66;43.86;100536.31;5059116;28;1179;-55
2022/04/19 07:12:19;;;;;;;;;;;;;;;17.69;43.81;100537.69;5059326;28;1412;-55
2022/04/19 07:15:10;;;;;;;;;;;;;;;17.74;43.77;100543.13;5064812;28;1459;-55
2022/04/19 07:17:40;;;;;;;;;;;;;;;17.72;43.88;100548.09;5058521;28;1264;-56
2022/04/19 07:28:19;;;;;;;;;;;;;;;17.67;43.66;100532.47;5053521;28;1206;-55
2022/04/19 07:30:47;;;;;;;;;;;;;;;17.81;43.66;100526.31;5055989;28;1336;-55
2022/04/19 07:33:16;;;;;;;;;;;;;;;17.84;43.50;100537.56;5058970;28;1178;-55
2022/04/19 07:35:42;;;;;;;;;;;;;;;17.76;43.62;100539.00;5058892;28;1166;-56
2022/04/19 07:38:10;;;;;;;;;;;;;;;17.82;43.64;100536.22;5058807;28;1394;-55
2022/04/19 07:41:06;;;;;;;;;;;;;;;17.85;43.35;100543.88;5054135;28;1108;-55
2022/04/19 07:43:36;;;;;;;;;;;;;;;17.78;43.43;100541.44;5057981;28;1980;-55
2022/04/19 07:46:02;;;;;;;;;;;;;;;17.81;43.54;100545.56;5071677;28;853;-55
2022/04/19 07:48:28;;;;;;;;;;;;;;;17.86;43.33;100542.78;5058033;28;1178;-53
2022/04/19 07:50:54;;;;;;;;;;;;;;;17.88;43.32;100546.03;5075811;28;1185;-57
2022/04/19 07:53:20;;;;;;;;;;;;;;;17.95;43.16;100541.91;5058420;28;1174;-56
2022/04/19 07:55:45;;;;;;;;;;;;;;;17.96;42.96;100548.22;5057443;28;1209;-57
2022/04/19 07:58:11;;;;;;;;;;;;;;;17.84;43.49;100543.06;5057764;28;1422;-57
2022/04/19 08:00:37;;;;;;;;;;;;;;;17.61;43.72;100537.19;5055801;28;1380;-57
2022/04/19 08:03:03;;;;;;;;;;;;;;;17.41;43.67;100551.88;5057788;28;1909;-51
2022/04/19 08:05:28;;;;;;;;;;;;;;;17.15;43.24;100544.91;5076607;28;857;-54
2022/04/19 08:07:56;;;;;;;;;;;;;;;16.91;42.38;100545.56;5058521;28;1312;-55
2022/04/19 08:10:21;;;;;;;;;;;;;;;16.71;42.20;100540.94;5057453;28;1912;-55
2022/04/19 08:12:48;;;;;;;;;;;;;;;16.62;41.95;100539.88;5057880;28;1285;-55
2022/04/19 08:15:14;;;;;;;;;;;;;;;16.44;41.81;100547.63;5056199;28;935;-56
2022/04/19 08:17:39;;;;;;;;;;;;;;;16.52;42.58;100543.47;5058014;28;1085;-57
2022/04/19 08:20:06;;;;;;;;;;;;;;;16.83;44.06;100535.13;5058147;28;1182;-57
2022/04/19 08:22:32;;;;;;;;;;;;;;;17.17;45.34;100537.22;5075868;28;1894;-57
2022/04/19 08:25:03;;;;;;;;;;;;;;;17.90;44.08;100544.66;5058194;28;1142;-54
2022/04/19 08:27:29;;;;;;;;;;;;;;;18.33;43.00;100544.03;5058048;28;1238;-57
2022/04/19 08:29:54;;;;;;;;;;;;;;;18.49;42.40;100532.84;5075500;28;762;-58
2022/04/19 08:32:20;;;;;;;;;;;;;;;18.42;42.41;100545.00;5070614;28;873;-57
2022/04/19 08:34:46;;;;;;;;;;;;;;;17.83;43.12;100540.59;5075218;28;1202;-57
2022/04/19 08:37:12;;;;;;;;;;;;;;;17.34;43.12;100526.66;5057703;28;1290;-57
2022/04/19 08:39:37;;;;;;;;;;;;;;;16.94;42.48;100536.75;5075637;28;1266;-57
2022/04/19 08:42:04;;;;;;;;;;;;;;;16.73;41.50;100536.84;5057968;28;1346;-56
2022/04/19 08:44:29;;;;;;;;;;;;;;;16.57;40.84;100548.97;5041020;28;1995;-57
2022/04/19 08:46:56;;;;;;;;;;;;;;;16.47;41.32;100562.72;5066316;28;960;-55
2022/04/19 08:49:21;;;;;;;;;;;;;;;16.69;42.99;100552.22;5057828;28;817;-55
2022/04/19 08:51:47;;;;;;;;;;;;;;;16.98;44.84;100546.06;5057096;28;1052;-56
2022/04/19 08:59:40;;;;;;;;;;;;;;;17.89;44.09;100537.53;5072673;28;942;-53
2022/04/19 09:02:06;;;;;;;;;;;;;;;18.18;43.61;100549.69;5073723;28;1349;-55
2022/04/19 09:04:31;;;;;;;;;;;;;;;18.32;43.18;100550.63;5075749;28;1988;-56
2022/04/19 09:06:57;;;;;;;;;;;;;;;18.31;43.09;100554.50;5075582;28;722;-58
2022/04/19 09:09:23;;;;;;;;;;;;;;;17.92;43.74;100547.16;5075695;28;884;-56
2022/04/19 09:11:50;;;;;;;;;;;;;;;17.53;44.03;100551.56;5074631;28;792;-56
2022/04/19 09:14:15;;;;;;;;;;;;;;;17.20;43.41;100545.69;5070688;28;909;-57
2022/04/19 09:16:41;;;;;;;;;;;;;;;16.88;42.68;100543.34;5074939;28;1220;-55
2022/04/19 09:19:07;;;;;;;;;;;;;;;16.76;42.11;100552.75;5057740;28;790;-56
2022/04/19 09:21:39;;;;;;;;;;;;;;;16.56;41.32;100539.06;5075015;28;842;-56
2022/04/19 09:24:18;;;;;;;;;;;;;;;16.49;41.65;100544.03;5078573;28;1974;-55
2022/04/19 09:26:44;;;;;;;;;;;;;;;16.74;43.80;100532.97;5078712;28;887;-54
2022/04/19 09:29:20;;;;;;;;;;;;;;;17.06;45.39;100537.25;5079066;28;865;-57
2022/04/19 09:31:46;;;;;;;;;;;;;;;17.38;45.55;100532.41;5074025;28;821;-55
2022/04/19 09:34:22;;;;;;;;;;;;;;;17.77;44.67;100524.13;5043567;28;1034;-56
2022/04/19 09:36:51;;;;;;;;;;;;;;;18.01;44.16;100539.91;5079409;28;794;-55
2022/04/19 09:39:26;;;;;;;;;;;;;;;18.15;43.62;100534.56;5078978;28;822;-56
2022/04/19 09:42:02;;;;;;;;;;;;;;;18.24;43.29;100532.00;5078417;28;842;-55
2022/04/19 09:44:29;;;;;;;;;;;;;;;18.26;43.18;100536.09;5073108;28;1992;-55
2022/04/19 09:47:04;;;;;;;;;;;;;;;18.11;43.33;100547.25;5075727;28;855;-56
2022/04/19 09:49:42;;;;;;;;;;;;;;;17.72;43.78;100543.41;5078845;28;850;-56
2022/04/19 09:52:08;;;;;;;;;;;;;;;17.34;43.71;100548.63;5076655;28;899;-56
2022/04/19 09:54:33;;;;;;;;;;;;;;;17.12;43.00;100545.47;5061368;28;834;-56
2022/04/19 09:57:05;;;;;;;;;;;;;;;16.85;42.44;100541.97;5078693;28;769;-57
2022/04/19 09:59:31;;;;;;;;;;;;;;;16.67;42.11;100535.19;5078049;28;1120;-55
2022/04/19 10:10:08;;;;;;;;;;;;;;;16.86;45.07;100546.38;5063111;28;854;-54
2022/04/19 10:12:33;;;;;;;;;;;;;;;17.45;45.64;100549.41;5060599;28;753;-55
2022/04/19 10:14:59;;;;;;;;;;;;;;;18.16;44.13;100549.13;5059537;28;813;-56
2022/04/19 10:17:24;;;;;;;;;;;;;;;18.64;42.94;100549.19;5055464;28;1049;-56
2022/04/19 10:19:50;;;;;;;;;;;;;;;18.94;41.96;100550.78;5060223;28;1047;-57
2022/04/19 10:22:16;;;;;;;;;;;;;;;18.95;42.01;100559.88;5078131;28;881;-55
2022/04/19 10:24:44;;;;;;;;;;;;;;;17.92;43.76;100549.91;5078469;28;1906;-55
2022/04/19 10:27:12;;;;;;;;;;;;;;;17.56;43.92;100550.16;5078046;28;1111;-54
2022/04/19 10:29:38;;;;;;;;;;;;;;;17.32;43.24;100558.25;5076586;28;1130;-55
2022/04/19 10:32:06;;;;;;;;;;;;;;;17.05;42.52;100556.75;5073361;28;1215;-55
2022/04/19 10:34:35;;;;;;;;;;;;;;;16.85;42.05;100558.47;5076950;28;1313;-58
2022/04/19 10:37:18;;;;;;;;;;;;;;;16.71;41.62;100563.72;5078062;28;1048;-50
2022/04/19 10:39:50;;;;;;;;;;;;;;;16.49;41.37;100561.31;5077420;28;1397;-56
2022/04/19 10:42:25;;;;;;;;;;;;;;;16.58;42.36;100567.09;5071410;28;962;-55
2022/04/19 10:44:52;;;;;;;;;;;;;;;16.90;44.11;100566.72;5077384;28;1211;-56
2022/04/19 10:47:18;;;;;;;;;;;;;;;17.18;45.99;100571.81;5077319;28;1084;-54
2022/04/19 10:49:57;;;;;;;;;;;;;;;17.57;46.16;100569.13;5077549;28;1064;-54
2022/04/19 10:52:40;;;;;;;;;;;;;;;17.92;45.51;100571.91;5076661;28;1278;-58
2022/04/19 10:55:07;;;;;;;;;;;;;;;18.19;44.38;100567.81;5074276;28;1262;-56
2022/04/19 11:00:25;;;;;;;;;;;;;;;18.41;43.79;100578.34;5073628;28;1041;-54
2022/04/19 11:03:00;;;;;;;;;;;;;;;17.99;44.43;100580.63;5077133;28;1981;-55
2022/04/19 11:05:36;;;;;;;;;;;;;;;17.51;43.78;100581.25;5077107;28;1029;-57
2022/04/19 11:08:20;;;;;;;;;;;;;;;17.16;42.99;100585.81;5074040;28;1032;-55
2022/04/19 11:10:45;;;;;;;;;;;;;;;16.81;42.16;100581.28;5074623;28;1180;-56
2022/04/19 11:13:14;;;;;;;;;;;;;;;16.69;41.58;100584.31;5076646;28;1195;-55
2022/04/19 11:15:42;;;;;;;;;;;;;;;16.66;41.70;100579.41;5057654;28;1372;-53
2022/04/19 11:18:22;;;;;;;;;;;;;;;16.48;41.29;100583.56;5076966;28;790;-54
2022/04/19 11:20:47;;;;;;;;;;;;;;;16.42;42.06;100580.84;5076646;28;945;-56
2022/04/19 11:23:19;;;;;;;;;;;;;;;16.55;43.05;100584.94;5076997;28;1971;-56
2022/04/19 11:25:46;;;;;;;;;;;;;;;16.72;44.24;100579.09;5076326;28;1031;-56
2022/04/19 11:28:11;;;;;;;;;;;;;;;16.86;44.96;100582.09;5076499;28;962;-56
2022/04/19 11:30:37;;;;;;;;;;;;;;;16.96;45.89;100575.75;5055667;28;896;-56
2022/04/19 11:33:04;;;;;;;;;;;;;;;17.00;46.25;100582.34;5053961;28;1448;-54
2022/04/19 11:35:32;;;;;;;;;;;;;;;16.96;46.50;100575.75;5076754;28;889;-55
2022/04/19 11:38:02;;;;;;;;;;;;;;;17.05;46.58;100584.22;5076950;28;929;-54
2022/04/19 11:48:45;;;;;;;;;;;;;;;17.32;46.35;100583.00;5076374;28;822;-57
2022/04/19 11:51:11;;;;;;;;;;;;;;;17.33;46.41;100573.66;5076325;28;858;-55
2022/04/19 11:53:37;;;;;;;;;;;;;;;17.27;46.42;100575.63;5076861;28;820;-55
2022/04/19 11:56:03;;;;;;;;;;;;;;;17.25;46.81;100580.56;5076290;28;811;-55
2022/04/19 11:58:28;;;;;;;;;;;;;;;17.32;46.35;100580.25;5075273;28;1092;-56
2022/04/19 12:00:58;;;;;;;;;;;;;;;17.28;46.38;100577.25;5070631;28;770;-53
2022/04/19 12:03:50;;;;;;;;;;;;;;;17.30;46.42;100572.28;5075702;28;1902;-54
2022/04/19 12:06:18;;;;;;;;;;;;;;;17.32;46.51;100572.84;5071364;28;1636;-53
2022/04/19 12:08:49;;;;;;;;;;;;;;;17.39;46.27;100583.50;5076237;28;850;-55
2022/04/19 12:11:16;;;;;;;;;;;;;;;17.34;46.25;100580.81;5069257;28;830;-55
2022/04/19 12:13:42;;;;;;;;;;;;;;;17.29;46.39;100576.13;5069886;28;804;-55
2022/04/19 12:16:09;;;;;;;;;;;;;;;17.25;46.27;100573.16;5071592;28;1047;-55
2022/04/19 12:18:35;;;;;;;;;;;;;;;17.35;46.08;100577.78;5057880;28;1251;-55
2022/04/19 12:21:01;;;;;;;;;;;;;;;17.41;46.28;100587.63;5076050;28;830;-55
2022/04/19 12:23:27;;;;;;;;;;;;;;;17.53;45.90;100586.44;5075483;28;1901;-55
2022/04/19 12:26:01;;;;;;;;;;;;;;;17.49;45.87;100583.47;5075992;28;1067;-52
2022/04/19 12:28:43;;;;;;;;;;;;;;;17.40;45.75;100583.25;5069508;28;762;-51
2022/04/19 12:31:09;;;;;;;;;;;;;;;17.38;45.70;100579.94;5069204;28;856;-55
2022/04/19 12:33:38;;;;;;;;;;;;;;;17.39;45.84;100578.84;5058160;28;1114;-54
2022/04/19 12:36:10;;;;;;;;;;;;;;;17.34;46.09;100573.38;5075603;28;826;-53
2022/04/19 12:38:35;;;;;;;;;;;;;;;17.37;45.66;100575.53;5075848;28;734;-52
2022/04/19 12:41:01;;;;;;;;;;;;;;;17.35;45.99;100586.00;5076121;28;924;-50
2022/04/19 12:43:42;;;;;;;;;;;;;;;17.30;45.89;100566.00;5057461;28;1909;-55
2022/04/19 12:46:08;;;;;;;;;;;;;;;17.28;45.70;100578.06;5075716;28;891;-54
2022/04/19 12:48:33;;;;;;;;;;;;;;;17.31;45.97;100576.69;5076065;28;766;-54
2022/04/19 12:51:02;;;;;;;;;;;;;;;17.30;45.55;100575.03;5075345;28;820;-53
2022/04/19 12:53:27;;;;;;;;;;;;;;;17.32;45.79;100574.75;5076046;28;848;-55
2022/04/19 12:55:53;;;;;;;;;;;;;;;17.35;45.76;100582.44;5075824;28;751;-54
2022/04/19 12:58:18;;;;;;;;;;;;;;;17.36;45.78;100584.06;5077759;28;912;-51
2022/04/19 13:00:44;;;;;;;;;;;;;;;17.36;45.49;100589.56;5074286;28;824;-54
2022/04/19 13:03:09;;;;;;;;;;;;;;;17.33;45.68;100590.97;5079191;28;1905;-53
2022/04/19 13:13:46;;;;;;;;;;;;;;;17.44;45.24;100603.53;5074625;28;759;-51
2022/04/19 13:16:11;;;;;;;;;;;;;;;17.47;45.30;100587.59;5075378;28;1216;-54
2022/04/19 13:18:36;;;;;;;;;;;;;;;17.50;45.07;100587.03;5061019;28;819;-53
2022/04/19 13:21:02;;;;;;;;;;;;;;;17.49;45.00;100585.38;5079227;28;794;-54
2022/04/19 13:23:28;;;;;;;;;;;;;;;17.46;45.04;100592.28;5079535;28;1963;-51
2022/04/19 13:25:53;;;;;;;;;;;;;;;17.43;45.08;100596.41;5076222;28;1012;-55
2022/04/19 13:28:19;;;;;;;;;;;;;;;17.42;44.99;100605.75;5078525;28;830;-54
2022/04/19 13:30:44;;;;;;;;;;;;;;;17.43;45.19;100601.06;5077921;28;868;-53
2022/04/19 13:33:10;;;;;;;;;;;;;;;17.42;44.84;100589.28;5078816;28;778;-52
2022/04/19 13:35:35;;;;;;;;;;;;;;;17.43;44.89;100596.41;5079059;28;824;-54
2022/04/19 13:40:58;;;;;;;;;;;;;;;17.43;45.04;100601.91;5006619;28;1449;-54
2022/04/19 13:43:24;;;;;;;;;;;;;;;17.53;44.62;100605.69;5078664;28;1969;-52
2022/04/19 13:45:49;;;;;;;;;;;;;;;17.41;44.87;100598.63;5078480;28;820;-54
2022/04/19 13:48:15;;;;;;;;;;;;;;;17.42;44.99;100594.75;5079361;28;758;-54
2022/04/19 13:50:40;;;;;;;;;;;;;;;17.51;44.67;100607.91;5078881;28;958;-52
2022/04/19 13:53:06;;;;;;;;;;;;;;;17.47;44.95;100601.34;5078567;28;805;-52
2022/04/19 13:55:31;;;;;;;;;;;;;;;17.52;44.83;100598.56;5078732;28;822;-54